Time;durP1;ratioP1;P1;durP2;ratioP2;P2;SDS_P1;SDS_P2;PMS_P1;PMS_P2;Temp;Humidity;BMP_temperature;BMP_pressure;BME280_temperature;BME280_humidity;BME280_pressure;Samples;Min_cycle;Max_cycle;Signal;HPM_P1;HPM_P2
2023/04/04 00:01:37;;;;;;;13.20;2.30;;;;;;;-0.57;64.50;101414.98;110195;1272;22158;-57
2023/04/04 00:04:08;;;;;;;12.90;2.20;;;;;;;-0.61;64.48;101409.44;110197;1268;22238;-55
2023/04/04 00:06:43;;;;;;;8.60;1.80;;;;;;;-0.60;64.72;101407.10;110200;1270;22542;-57
2023/04/04 00:09:14;;;;;;;12.80;2.60;;;;;;;-0.61;64.74;101406.79;110195;1271;23016;-56
2023/04/04 00:11:45;;;;;;;9.70;2.40;;;;;;;-0.59;64.99;101399.98;110235;1271;22219;-57
2023/04/04 00:14:17;;;;;;;13.60;2.60;;;;;;;-0.58;65.04;101398.05;107977;1268;24331;-57
2023/04/04 00:16:48;;;;;;;14.30;2.70;;;;;;;-0.60;65.22;101397.23;110226;1265;22216;-55
2023/04/04 00:19:19;;;;;;;11.80;2.40;;;;;;;-0.57;65.27;101394.52;110223;1275;22226;-58
2023/04/04 00:21:50;;;;;;;19.10;2.60;;;;;;;-0.56;65.24;101394.38;110173;1272;23016;-56
2023/04/04 00:24:21;;;;;;;13.60;2.30;;;;;;;-0.54;65.24;101390.88;110468;1269;22230;-56
2023/04/04 00:26:51;;;;;;;12.40;2.90;;;;;;;-0.51;65.38;101384.88;110500;1275;22135;-55
2023/04/04 00:29:22;;;;;;;14.20;2.40;;;;;;;-0.49;65.37;101390.85;110474;1262;22212;-57
2023/04/04 00:31:53;;;;;;;14.10;2.40;;;;;;;-0.49;65.55;101387.16;110450;1268;22128;-56
2023/04/04 00:34:24;;;;;;;8.30;1.70;;;;;;;-0.48;65.41;101380.52;110487;1261;22198;-56
2023/04/04 00:36:54;;;;;;;10.70;1.90;;;;;;;-0.46;65.64;101381.70;110472;1262;22438;-57
2023/04/04 00:39:26;;;;;;;10.80;1.80;;;;;;;-0.45;65.86;101378.11;110470;1268;22875;-57
2023/04/04 00:41:57;;;;;;;13.60;2.00;;;;;;;-0.44;65.75;101373.57;110483;1275;22252;-58
2023/04/04 00:44:29;;;;;;;8.20;1.60;;;;;;;-0.44;65.75;101375.52;110489;1275;23004;-55
2023/04/04 00:47:00;;;;;;;11.80;2.80;;;;;;;-0.43;65.81;101372.48;110485;1268;22382;-57
2023/04/04 00:49:30;;;;;;;11.30;1.50;;;;;;;-0.41;65.97;101372.59;110468;1268;22394;-56
2023/04/04 00:52:01;;;;;;;9.90;2.10;;;;;;;-0.39;65.93;101369.08;110504;1268;22904;-57
2023/04/04 00:54:33;;;;;;;12.80;1.70;;;;;;;-0.38;65.79;101367.13;110479;1275;22291;-57
2023/04/04 00:57:07;;;;;;;11.80;2.10;;;;;;;-0.35;65.99;101369.74;109144;1275;22523;-57
2023/04/04 00:59:38;;;;;;;12.20;1.90;;;;;;;-0.32;65.98;101366.79;106563;1275;25504;-55
2023/04/04 01:02:09;;;;;;;16.50;3.30;;;;;;;-0.32;65.98;101366.17;106414;1270;24222;-56
2023/04/04 01:04:41;;;;;;;18.20;2.00;;;;;;;-0.31;65.97;101365.24;110481;1268;22306;-58
2023/04/04 01:07:12;;;;;;;20.00;3.10;;;;;;;-0.27;65.96;101363.85;110492;1262;22185;-58
2023/04/04 01:09:44;;;;;;;13.00;2.70;;;;;;;-0.29;65.72;101358.66;110471;1267;22323;-58
2023/04/04 01:12:15;;;;;;;13.70;2.50;;;;;;;-0.28;66.00;101359.69;110464;1275;22327;-56
2023/04/04 01:14:45;;;;;;;15.10;2.40;;;;;;;-0.27;65.85;101357.44;110484;1275;22799;-56
2023/04/04 01:17:17;;;;;;;14.50;2.10;;;;;;;-0.30;65.84;101354.19;110453;1268;22305;-58
2023/04/04 01:19:53;;;;;;;11.50;1.80;;;;;;;-0.34;65.86;101355.96;110442;1271;22775;-55
2023/04/04 01:22:27;;;;;;;11.20;2.10;;;;;;;-0.36;65.80;101350.30;110484;1269;22204;-58
2023/04/04 01:24:59;;;;;;;10.70;2.40;;;;;;;-0.42;65.68;101346.70;110491;1270;22195;-57
2023/04/04 01:27:30;;;;;;;9.50;1.80;;;;;;;-0.45;65.90;101350.76;110458;1266;22254;-55
2023/04/04 01:30:02;;;;;;;11.50;2.10;;;;;;;-0.44;65.78;101347.86;110467;1269;22345;-59
2023/04/04 01:32:42;;;;;;;15.90;2.60;;;;;;;-0.45;65.80;101346.13;110467;1274;22316;-59
2023/04/04 01:35:26;;;;;;;13.50;1.70;;;;;;;-0.48;65.89;101343.53;110500;1268;22253;-57
2023/04/04 01:38:18;;;;;;;16.00;2.60;;;;;;;-0.47;66.07;101342.59;110478;1264;23064;-59
2023/04/04 01:40:52;;;;;;;16.40;2.60;;;;;;;-0.46;66.21;101339.39;110013;1265;24532;-59
2023/04/04 01:43:23;;;;;;;17.80;2.50;;;;;;;-0.47;66.09;101333.89;110473;1265;22185;-59
2023/04/04 01:45:54;;;;;;;11.20;2.20;;;;;;;-0.48;66.16;101330.76;110459;1269;22155;-56
2023/04/04 01:48:25;;;;;;;12.40;2.90;;;;;;;-0.48;66.21;101332.24;110480;1268;22292;-59
2023/04/04 01:50:56;;;;;;;14.60;2.50;;;;;;;-0.47;66.26;101334.52;110502;1271;22095;-58
2023/04/04 01:53:27;;;;;;;15.70;3.10;;;;;;;-0.47;66.24;101333.80;110512;1272;22319;-58
2023/04/04 01:55:58;;;;;;;12.70;2.10;;;;;;;-0.47;66.26;101329.66;110482;1269;22212;-58
2023/04/04 01:58:29;;;;;;;18.20;3.10;;;;;;;-0.45;66.19;101326.55;110438;1264;22156;-58
2023/04/04 02:01:00;;;;;;;14.30;3.20;;;;;;;-0.42;65.88;101321.70;110453;1269;22203;-58
2023/04/04 02:03:31;;;;;;;10.40;1.80;;;;;;;-0.40;65.38;101317.25;110455;1265;23404;-57
2023/04/04 02:06:02;;;;;;;10.00;2.00;;;;;;;-0.39;65.34;101318.67;110494;1269;22922;-58
2023/04/04 02:08:33;;;;;;;12.20;1.80;;;;;;;-0.36;65.44;101314.95;110516;1275;22208;-57
2023/04/04 02:11:03;;;;;;;17.20;2.10;;;;;;;-0.32;65.43;101317.48;110480;1271;22269;-58
2023/04/04 02:13:36;;;;;;;8.20;1.60;;;;;;;-0.29;65.37;101317.90;110469;1268;22257;-58
2023/04/04 02:16:07;;;;;;;12.10;2.00;;;;;;;-0.27;65.44;101317.77;110500;1275;22373;-58
2023/04/04 02:18:39;;;;;;;11.50;1.60;;;;;;;-0.25;65.56;101316.20;110487;1263;22243;-59
2023/04/04 02:21:10;;;;;;;9.10;1.60;;;;;;;-0.24;65.45;101315.20;110481;1260;23122;-57
2023/04/04 02:23:40;;;;;;;12.00;2.10;;;;;;;-0.26;65.06;101317.85;110480;1269;22195;-58
2023/04/04 02:26:11;;;;;;;12.40;2.50;;;;;;;-0.27;65.07;101314.47;110484;1268;22269;-58
2023/04/04 02:28:42;;;;;;;9.00;1.70;;;;;;;-0.26;65.17;101317.61;110467;1268;22196;-59
2023/04/04 02:31:13;;;;;;;12.50;1.80;;;;;;;-0.25;65.22;101323.73;110510;1271;22170;-58
2023/04/04 02:33:44;;;;;;;10.90;1.70;;;;;;;-0.25;65.02;101320.61;110307;1265;22650;-57
2023/04/04 02:36:16;;;;;;;12.00;2.10;;;;;;;-0.25;64.93;101320.05;106432;1260;25612;-57
2023/04/04 02:38:47;;;;;;;12.90;2.40;;;;;;;-0.25;64.94;101321.61;106590;1253;24364;-57
2023/04/04 02:41:18;;;;;;;7.60;1.40;;;;;;;-0.24;65.13;101324.61;106516;1271;25531;-56
2023/04/04 02:43:49;;;;;;;11.40;2.30;;;;;;;-0.22;65.37;101325.72;106443;1275;22651;-57
2023/04/04 02:46:19;;;;;;;13.20;1.80;;;;;;;-0.23;65.28;101323.27;106332;1269;22655;-58
2023/04/04 02:48:51;;;;;;;9.60;1.60;;;;;;;-0.24;65.07;101328.60;106420;1272;22589;-57
2023/04/04 02:51:22;;;;;;;9.60;1.70;;;;;;;-0.27;64.96;101326.08;106471;1261;24221;-57
2023/04/04 02:53:52;;;;;;;10.40;1.90;;;;;;;-0.30;65.13;101324.33;106435;1275;22514;-54
2023/04/04 02:56:21;;;;;;;;;;;;;;;-0.34;65.30;101329.61;106396;1270;25701;-56
2023/04/04 02:58:53;;;;;;;13.10;2.40;;;;;;;-0.36;65.43;101327.48;106440;1275;22626;-57
2023/04/04 03:01:24;;;;;;;13.50;2.40;;;;;;;-0.38;65.68;101329.42;106400;1272;25413;-57
2023/04/04 03:03:55;;;;;;;17.10;2.60;;;;;;;-0.42;65.70;101327.20;106479;1271;25684;-56
2023/04/04 03:06:25;;;;;;;15.10;2.30;;;;;;;-0.49;65.80;101325.73;106505;1262;25480;-55
2023/04/04 03:08:56;;;;;;;13.00;2.70;;;;;;;-0.51;65.92;101322.02;106471;1275;22629;-57
2023/04/04 03:11:27;;;;;;;13.80;3.20;;;;;;;-0.54;65.98;101323.72;106350;1268;22630;-57
2023/04/04 03:13:58;;;;;;;15.10;2.60;;;;;;;-0.55;66.07;101323.23;106502;1270;22518;-57
2023/04/04 03:16:28;;;;;;;15.60;3.40;;;;;;;-0.58;66.16;101324.38;106432;1269;22515;-55
2023/04/04 03:18:59;;;;;;;13.20;2.90;;;;;;;-0.61;66.20;101326.61;106471;1268;24378;-54
2023/04/04 03:21:30;;;;;;;12.50;2.90;;;;;;;-0.67;66.46;101326.96;106463;1275;22636;-58
2023/04/04 03:24:01;;;;;;;15.70;3.40;;;;;;;-0.74;66.55;101322.73;106522;1269;22519;-57
2023/04/04 03:26:32;;;;;;;18.20;3.40;;;;;;;-0.82;66.88;101324.92;106526;1275;27725;-54
2023/04/04 03:29:03;;;;;;;17.00;2.70;;;;;;;-0.88;67.01;101327.21;106429;1269;25585;-55
2023/04/04 03:31:34;;;;;;;14.60;3.00;;;;;;;-0.92;67.12;101325.75;110464;1268;22368;-56
2023/04/04 03:34:05;;;;;;;21.50;3.30;;;;;;;-0.95;67.30;101329.01;110504;1260;22277;-58
2023/04/04 03:36:36;;;;;;;20.00;4.20;;;;;;;-0.97;67.27;101326.33;108680;1275;25121;-59
2023/04/04 03:39:07;;;;;;;13.30;3.60;;;;;;;-0.96;67.44;101328.69;106410;1262;22535;-57
2023/04/04 03:41:38;;;;;;;17.90;4.20;;;;;;;-0.93;67.47;101331.84;106430;1275;24380;-56
2023/04/04 03:44:08;;;;;;;21.30;4.00;;;;;;;-0.91;67.68;101329.06;106409;1275;22574;-57
2023/04/04 03:46:39;;;;;;;17.90;4.80;;;;;;;-0.91;67.87;101331.40;106519;1270;26692;-56
2023/04/04 03:49:10;;;;;;;19.10;4.10;;;;;;;-0.91;68.02;101334.85;106494;1269;24252;-55
2023/04/04 03:51:41;;;;;;;19.60;4.50;;;;;;;-0.90;67.97;101333.54;106562;1259;23890;-55
2023/04/04 03:54:11;;;;;;;16.20;4.20;;;;;;;-0.89;68.26;101329.79;106531;1275;22670;-56
2023/04/04 03:56:43;;;;;;;14.60;4.40;;;;;;;-0.88;68.29;101330.96;106518;1275;22529;-56
2023/04/04 03:59:13;;;;;;;17.40;4.40;;;;;;;-0.89;68.42;101327.59;110444;1271;22157;-58
2023/04/04 04:01:44;;;;;;;22.60;5.20;;;;;;;-0.88;68.45;101335.36;110434;1265;23090;-57
2023/04/04 04:04:15;;;;;;;19.30;4.50;;;;;;;-0.84;68.61;101325.77;110499;1265;22534;-58
2023/04/04 04:06:47;;;;;;;18.40;4.20;;;;;;;-0.85;68.58;101325.13;110486;1270;22227;-58
2023/04/04 04:09:18;;;;;;;19.20;4.10;;;;;;;-0.86;68.69;101326.45;110447;1261;22379;-60
2023/04/04 04:11:49;;;;;;;17.70;4.90;;;;;;;-0.85;68.66;101325.22;110445;1275;22187;-59
2023/04/04 04:14:20;;;;;;;19.70;4.60;;;;;;;-0.83;68.86;101324.76;110447;1269;22251;-60
2023/04/04 04:16:51;;;;;;;18.70;4.30;;;;;;;-0.83;68.82;101322.80;110454;1271;22187;-58
2023/04/04 04:19:22;;;;;;;18.00;5.90;;;;;;;-0.82;69.03;101324.46;110072;1265;22528;-59
2023/04/04 04:21:53;;;;;;;19.30;4.40;;;;;;;-0.84;69.05;101324.58;107091;1271;24245;-59
2023/04/04 04:24:24;;;;;;;22.70;5.10;;;;;;;-0.85;69.11;101328.89;106558;1269;24450;-59
2023/04/04 04:26:55;;;;;;;23.70;5.20;;;;;;;-0.83;69.14;101326.64;110466;1275;22257;-60
2023/04/04 04:29:25;;;;;;;21.20;4.80;;;;;;;-0.82;69.20;101321.87;110460;1265;22164;-59
2023/04/04 04:31:56;;;;;;;20.60;5.20;;;;;;;-0.81;69.15;101324.30;110475;1265;22397;-59
2023/04/04 04:34:27;;;;;;;19.40;5.10;;;;;;;-0.82;69.23;101323.20;110448;1271;22248;-59
2023/04/04 04:36:58;;;;;;;22.10;4.90;;;;;;;-0.84;69.21;101319.34;110509;1271;23082;-60
2023/04/04 04:39:29;;;;;;;19.90;6.40;;;;;;;-0.86;69.29;101320.73;110430;1271;23047;-60
2023/04/04 04:42:00;;;;;;;19.60;4.70;;;;;;;-0.88;69.30;101319.77;110484;1272;22164;-60
2023/04/04 04:44:31;;;;;;;18.60;4.70;;;;;;;-0.87;69.34;101322.67;110435;1275;22169;-60
2023/04/04 04:47:03;;;;;;;18.70;3.80;;;;;;;-0.87;69.38;101330.35;110451;1268;22197;-58
2023/04/04 04:49:34;;;;;;;20.30;4.50;;;;;;;-0.87;69.30;101322.98;110472;1265;22821;-60
2023/04/04 04:52:04;;;;;;;16.10;4.40;;;;;;;-0.86;69.41;101322.30;110440;1272;22205;-58
2023/04/04 04:54:35;;;;;;;16.20;4.00;;;;;;;-0.83;69.46;101319.82;110466;1269;22911;-60
2023/04/04 04:57:06;;;;;;;21.50;4.10;;;;;;;-0.81;69.47;101316.48;110444;1269;22343;-59
2023/04/04 04:59:37;;;;;;;21.90;5.70;;;;;;;-0.79;69.38;101318.60;110481;1269;22786;-59
2023/04/04 05:02:08;;;;;;;18.50;4.00;;;;;;;-0.79;69.35;101319.54;110452;1269;22208;-59
2023/04/04 05:04:40;;;;;;;17.40;3.50;;;;;;;-0.76;69.48;101323.24;110445;1263;22977;-59
2023/04/04 05:07:11;;;;;;;21.20;4.20;;;;;;;-0.71;69.37;101325.42;110020;1268;22600;-58
2023/04/04 05:09:42;;;;;;;14.90;3.40;;;;;;;-0.69;69.14;101322.16;110395;1271;22434;-60
2023/04/04 05:12:13;;;;;;;18.30;4.60;;;;;;;-0.66;69.11;101325.71;110424;1269;23372;-59
2023/04/04 05:14:43;;;;;;;20.90;4.60;;;;;;;-0.63;69.07;101329.81;110487;1275;22322;-60
2023/04/04 05:17:14;;;;;;;20.80;4.90;;;;;;;-0.59;69.02;101331.81;110478;1271;22379;-58
2023/04/04 05:19:45;;;;;;;19.60;3.50;;;;;;;-0.55;69.14;101334.91;110447;1272;22397;-59
2023/04/04 05:22:16;;;;;;;17.70;4.90;;;;;;;-0.52;68.94;101340.66;110450;1262;22954;-59
2023/04/04 05:24:48;;;;;;;21.30;5.00;;;;;;;-0.50;68.78;101340.67;110441;1269;23275;-59
2023/04/04 05:27:19;;;;;;;15.70;4.20;;;;;;;-0.45;68.95;101339.86;110442;1269;22286;-60
2023/04/04 05:29:50;;;;;;;19.80;4.70;;;;;;;-0.42;69.00;101339.19;110311;1275;22493;-59
2023/04/04 05:32:21;;;;;;;15.80;4.40;;;;;;;-0.40;68.75;101334.51;109931;1265;34742;-60
2023/04/04 05:34:53;;;;;;;15.80;3.70;;;;;;;-0.40;68.66;101338.03;110285;1272;22934;-59
2023/04/04 05:37:24;;;;;;;17.30;4.30;;;;;;;-0.37;68.71;101337.66;108534;1271;22533;-60
2023/04/04 05:39:55;;;;;;;17.30;3.80;;;;;;;-0.34;68.68;101339.42;106327;1275;23228;-60
2023/04/04 05:42:26;;;;;;;18.80;4.40;;;;;;;-0.33;68.45;101341.86;106517;1267;23157;-60
2023/04/04 05:44:57;;;;;;;16.40;4.20;;;;;;;-0.33;68.41;101339.83;110435;1268;23153;-58
2023/04/04 05:47:28;;;;;;;16.70;3.80;;;;;;;-0.33;68.42;101343.42;110414;1264;23019;-64
2023/04/04 05:49:59;;;;;;;18.90;3.50;;;;;;;-0.30;68.52;101339.37;110361;1263;24000;-59
2023/04/04 05:52:30;;;;;;;21.40;3.80;;;;;;;-0.28;68.44;101340.48;110403;1267;23097;-58
2023/04/04 05:55:00;;;;;;;14.70;3.00;;;;;;;-0.25;68.15;101339.73;110396;1270;22150;-57
2023/04/04 05:57:32;;;;;;;18.20;3.80;;;;;;;-0.24;67.78;101343.66;110333;1266;23095;-63
2023/04/04 06:00:04;;;;;;;17.70;3.90;;;;;;;-0.24;67.65;101341.85;106562;1270;22751;-57
2023/04/04 06:02:37;;;;;;;18.90;3.90;;;;;;;-0.18;68.18;101339.33;110420;1274;22150;-56
2023/04/04 06:05:11;;;;;;;18.00;3.20;;;;;;;-0.13;67.80;101335.44;110361;1271;22182;-59
2023/04/04 06:07:42;;;;;;;13.70;3.00;;;;;;;-0.10;67.84;101337.42;110445;1271;22885;-58
2023/04/04 06:10:13;;;;;;;13.50;2.80;;;;;;;-0.06;67.58;101338.08;110451;1272;22221;-59
2023/04/04 06:12:44;;;;;;;12.90;2.70;;;;;;;-0.04;67.58;101340.91;110443;1272;22912;-58
2023/04/04 06:15:16;;;;;;;12.70;3.10;;;;;;;-0.00;67.51;101339.86;110460;1259;22200;-58
2023/04/04 06:17:47;;;;;;;13.80;2.60;;;;;;;0.04;67.30;101339.25;110443;1272;22248;-58
2023/04/04 06:20:20;;;;;;;16.40;2.90;;;;;;;0.07;67.35;101333.09;110279;1272;214480;-59
2023/04/04 06:22:50;;;;;;;13.10;2.60;;;;;;;0.11;66.89;101332.48;110444;1272;22266;-58
2023/04/04 06:25:21;;;;;;;16.70;2.70;;;;;;;0.11;66.83;101337.42;110466;1272;22200;-59
2023/04/04 06:27:52;;;;;;;13.90;2.90;;;;;;;0.12;66.85;101333.52;110347;1272;23043;-57
2023/04/04 06:30:23;;;;;;;14.40;2.80;;;;;;;0.15;66.99;101336.34;110341;1267;22875;-58
2023/04/04 06:32:54;;;;;;;13.90;3.00;;;;;;;0.19;67.07;101338.18;110446;1266;22947;-57
2023/04/04 06:35:25;;;;;;;20.00;2.80;;;;;;;0.22;66.70;101330.90;110482;1272;22274;-58
2023/04/04 06:37:57;;;;;;;16.50;3.40;;;;;;;0.26;66.62;101330.08;110476;1272;22199;-58
2023/04/04 06:40:28;;;;;;;15.80;3.20;;;;;;;0.31;66.59;101325.39;110424;1267;22408;-59
2023/04/04 06:42:59;;;;;;;10.30;2.30;;;;;;;0.36;66.66;101328.16;110436;1267;23193;-59
2023/04/04 06:45:32;;;;;;;12.70;2.40;;;;;;;0.43;66.48;101327.36;110422;1267;22225;-58
2023/04/04 06:48:03;;;;;;;9.90;2.70;;;;;;;0.49;66.36;101327.70;110432;1263;22173;-59
2023/04/04 06:50:35;;;;;;;15.10;2.20;;;;;;;0.53;66.01;101324.27;110460;1269;22531;-58
2023/04/04 06:53:06;;;;;;;13.10;3.50;;;;;;;0.57;65.82;101322.78;110461;1272;22210;-58
2023/04/04 06:55:36;;;;;;;9.40;2.60;;;;;;;0.61;65.72;101326.96;110433;1269;22307;-58
2023/04/04 06:58:07;;;;;;;14.80;2.40;;;;;;;0.64;65.37;101326.51;110450;1266;22319;-58
2023/04/04 07:00:38;;;;;;;18.10;2.40;;;;;;;0.66;65.44;101330.84;110476;1267;22121;-59
2023/04/04 07:03:09;;;;;;;10.10;2.00;;;;;;;0.70;65.08;101325.98;110441;1267;23527;-58
2023/04/04 07:05:40;;;;;;;14.70;2.20;;;;;;;0.72;64.82;101331.09;110409;1274;22173;-57
2023/04/04 07:08:11;;;;;;;7.00;1.90;;;;;;;0.76;65.17;101333.33;110407;1267;23235;-58
2023/04/04 07:10:42;;;;;;;13.70;2.60;;;;;;;0.82;65.12;101332.09;110434;1261;22427;-60
2023/04/04 07:13:13;;;;;;;11.80;2.00;;;;;;;0.87;64.81;101331.02;110437;1272;23317;-58
2023/04/04 07:15:49;;;;;;;15.00;2.50;;;;;;;0.91;64.67;101331.66;110415;1260;22220;-59
2023/04/04 07:18:20;;;;;;;9.80;1.90;;;;;;;0.98;64.99;101333.09;110433;1267;23213;-59
2023/04/04 07:20:51;;;;;;;10.10;1.80;;;;;;;1.03;64.41;101332.56;110451;1275;22957;-59
2023/04/04 07:23:21;;;;;;;9.90;2.20;;;;;;;1.07;63.62;101332.89;110461;1260;22203;-58
2023/04/04 07:25:52;;;;;;;9.60;1.90;;;;;;;1.10;63.95;101330.54;110414;1263;23650;-59
2023/04/04 07:28:23;;;;;;;9.40;1.60;;;;;;;1.13;64.05;101330.00;110429;1263;22280;-58
2023/04/04 07:30:54;;;;;;;11.00;1.70;;;;;;;1.16;63.31;101329.45;110438;1272;22265;-57
2023/04/04 07:33:26;;;;;;;10.10;2.40;;;;;;;1.19;63.43;101329.62;110427;1267;22323;-58
2023/04/04 07:35:56;;;;;;;10.30;1.30;;;;;;;1.23;63.26;101325.16;110470;1275;22151;-59
2023/04/04 07:38:28;;;;;;;11.90;1.60;;;;;;;1.25;63.17;101328.45;110420;1267;22402;-58
2023/04/04 07:40:58;;;;;;;11.30;2.10;;;;;;;1.26;62.86;101329.55;110416;1273;22406;-57
2023/04/04 07:43:30;;;;;;;10.20;1.30;;;;;;;1.29;63.05;101329.41;110434;1267;23294;-58
2023/04/04 07:46:01;;;;;;;7.90;1.50;;;;;;;1.33;62.71;101328.32;110448;1264;22161;-60
2023/04/04 07:48:33;;;;;;;9.80;1.70;;;;;;;1.36;62.84;101330.29;110442;1270;22300;-58
2023/04/04 07:51:05;;;;;;;9.60;1.50;;;;;;;1.39;62.56;101336.02;110407;1267;22441;-58
2023/04/04 07:53:36;;;;;;;10.30;1.80;;;;;;;1.41;62.16;101330.77;110459;1275;22535;-58
2023/04/04 07:56:07;;;;;;;9.70;1.60;;;;;;;1.40;62.08;101327.30;110407;1267;22206;-59
2023/04/04 07:58:38;;;;;;;7.20;1.40;;;;;;;1.44;62.36;101329.13;110426;1267;22449;-58
2023/04/04 08:01:08;;;;;;;7.60;1.30;;;;;;;1.46;61.65;101326.77;110455;1264;22172;-58
2023/04/04 08:03:40;;;;;;;11.50;1.70;;;;;;;1.52;62.37;101324.73;110447;1263;23291;-60
2023/04/04 08:06:11;;;;;;;8.20;1.30;;;;;;;1.57;62.29;101327.41;110453;1267;22345;-58
2023/04/04 08:08:42;;;;;;;8.50;1.50;;;;;;;1.61;62.11;101330.48;110428;1274;22284;-60
2023/04/04 08:11:12;;;;;;;10.10;1.60;;;;;;;1.62;61.55;101325.14;110422;1267;23168;-58
2023/04/04 08:13:43;;;;;;;9.60;1.30;;;;;;;1.60;61.48;101325.67;110405;1267;22958;-58
2023/04/04 08:16:14;;;;;;;11.00;1.80;;;;;;;1.60;60.67;101322.54;110441;1269;22855;-58
2023/04/04 08:18:45;;;;;;;7.00;1.60;;;;;;;1.60;60.94;101324.59;110435;1267;22165;-58
2023/04/04 08:21:16;;;;;;;9.00;1.20;;;;;;;1.62;60.69;101321.92;110445;1267;22504;-60
2023/04/04 08:23:47;;;;;;;11.80;1.50;;;;;;;1.62;60.12;101318.67;110458;1275;22902;-58
2023/04/04 08:26:18;;;;;;;8.30;1.20;;;;;;;1.62;59.78;101321.91;110466;1267;22282;-59
2023/04/04 08:28:50;;;;;;;5.80;1.10;;;;;;;1.62;59.05;101324.03;110395;1267;23107;-56
2023/04/04 08:31:21;;;;;;;7.30;1.00;;;;;;;1.64;59.23;101327.11;110410;1267;22181;-57
2023/04/04 08:33:52;;;;;;;3.70;0.80;;;;;;;1.62;59.15;101327.89;110411;1267;22136;-57
2023/04/04 08:36:23;;;;;;;6.80;0.90;;;;;;;1.63;59.63;101325.77;110483;1274;22132;-60
2023/04/04 08:38:54;;;;;;;6.90;1.00;;;;;;;1.66;59.74;101321.20;110467;1267;22209;-57
2023/04/04 08:41:25;;;;;;;8.00;1.20;;;;;;;1.67;58.69;101316.09;110427;1264;22893;-58
2023/04/04 08:43:57;;;;;;;6.50;1.10;;;;;;;1.64;57.49;101318.60;110449;1267;22211;-57
2023/04/04 08:46:29;;;;;;;3.70;0.80;;;;;;;1.65;58.65;101313.65;110435;1267;22201;-58
2023/04/04 08:49:03;;;;;;;7.60;1.10;;;;;;;1.69;58.31;101310.59;110466;1267;22355;-59
2023/04/04 08:51:35;;;;;;;8.80;1.30;;;;;;;1.72;58.05;101314.21;110409;1267;22397;-59
2023/04/04 08:54:07;;;;;;;6.90;1.20;;;;;;;1.74;57.28;101311.92;110419;1267;22389;-58
2023/04/04 08:56:38;;;;;;;7.50;1.30;;;;;;;1.77;57.42;101311.46;110450;1267;22501;-59
2023/04/04 08:59:10;;;;;;;7.40;1.20;;;;;;;1.78;57.50;101310.44;110393;1267;22165;-58
2023/04/04 09:01:41;;;;;;;10.70;1.20;;;;;;;1.81;57.68;101307.45;110431;1264;22236;-58
2023/04/04 09:04:13;;;;;;;6.00;0.80;;;;;;;1.86;57.39;101305.41;110429;1267;22204;-58
2023/04/04 09:06:44;;;;;;;5.90;1.20;;;;;;;1.87;56.53;101307.05;110430;1263;22410;-57
2023/04/04 09:09:16;;;;;;;6.60;1.00;;;;;;;1.81;55.46;101304.85;110425;1261;23235;-57
2023/04/04 09:11:50;;;;;;;4.90;1.10;;;;;;;1.78;56.71;101302.27;110488;1267;22286;-58
2023/04/04 09:14:22;;;;;;;8.70;1.10;;;;;;;1.82;56.10;101303.11;110459;1272;22198;-58
2023/04/04 09:16:53;;;;;;;4.10;0.70;;;;;;;1.85;55.78;101297.61;110468;1267;22934;-57
2023/04/04 09:19:24;;;;;;;7.40;1.20;;;;;;;1.84;55.37;101296.27;110416;1267;22167;-58
2023/04/04 09:21:55;;;;;;;7.40;1.00;;;;;;;1.90;56.21;101299.73;110424;1267;22212;-59
2023/04/04 09:24:36;;;;;;;4.70;1.00;;;;;;;1.98;56.65;101297.91;110432;1260;22183;-59
2023/04/04 09:27:09;;;;;;;4.90;0.90;;;;;;;2.09;56.77;101297.98;110392;1260;22418;-58
2023/04/04 09:29:41;;;;;;;3.70;0.70;;;;;;;2.19;55.89;101300.78;110453;1275;22284;-59
2023/04/04 09:32:16;;;;;;;4.90;0.80;;;;;;;2.21;55.03;101301.58;110441;1267;22181;-58
2023/04/04 09:34:47;;;;;;;10.10;1.00;;;;;;;2.22;55.41;101303.23;110451;1267;22377;-59
2023/04/04 09:37:18;;;;;;;5.60;0.90;;;;;;;2.27;54.90;101301.17;110427;1263;22198;-58
2023/04/04 09:39:49;;;;;;;6.00;0.80;;;;;;;2.32;54.38;101299.90;110461;1267;22168;-59
2023/04/04 09:42:20;;;;;;;6.50;0.90;;;;;;;2.38;54.98;101300.98;110427;1260;22399;-60
2023/04/04 09:44:55;;;;;;;5.90;0.90;;;;;;;2.46;54.95;101302.14;110489;1275;22170;-59
2023/04/04 09:47:27;;;;;;;3.80;0.80;;;;;;;2.51;54.19;101304.58;110437;1271;22297;-58
2023/04/04 09:50:00;;;;;;;7.80;0.90;;;;;;;2.52;54.53;101304.10;110416;1259;22347;-59
2023/04/04 09:52:34;;;;;;;5.30;0.80;;;;;;;2.55;54.38;101302.98;110399;1267;22326;-58
2023/04/04 09:55:06;;;;;;;4.90;1.00;;;;;;;2.48;53.47;101299.30;110418;1267;22175;-59
2023/04/04 09:57:38;;;;;;;8.20;1.20;;;;;;;2.33;53.39;101302.41;108285;1275;25383;-57
2023/04/04 10:00:12;;;;;;;8.20;1.00;;;;;;;2.18;53.45;101302.37;106598;1275;25382;-57
2023/04/04 10:02:48;;;;;;;7.80;1.20;;;;;;;2.13;53.39;101303.88;110435;1275;23130;-59
2023/04/04 10:05:20;;;;;;;12.50;1.40;;;;;;;2.13;53.69;101302.38;110472;1267;22144;-58
2023/04/04 10:07:51;;;;;;;4.70;0.80;;;;;;;2.22;54.33;101306.93;110443;1264;22357;-59
2023/04/04 10:10:22;;;;;;;5.50;1.10;;;;;;;2.30;53.92;101301.80;110472;1267;22211;-58
2023/04/04 10:12:57;;;;;;;8.40;1.20;;;;;;;2.39;54.40;101297.60;110413;1267;22163;-59
2023/04/04 10:15:37;;;;;;;7.60;1.10;;;;;;;2.44;52.93;101294.42;110437;1267;22248;-58
2023/04/04 10:18:09;;;;;;;5.60;0.90;;;;;;;2.47;52.59;101295.05;110398;1267;22414;-59
2023/04/04 10:20:41;;;;;;;7.00;0.90;;;;;;;2.56;53.22;101290.85;110444;1267;22171;-60
2023/04/04 10:23:13;;;;;;;5.00;1.00;;;;;;;2.63;51.90;101279.32;110456;1263;22987;-58
2023/04/04 10:25:44;;;;;;;3.60;0.90;;;;;;;2.69;51.63;101277.95;110464;1263;22400;-59
2023/04/04 10:28:16;;;;;;;5.30;1.00;;;;;;;2.77;52.01;101277.54;110442;1267;22285;-59
2023/04/04 10:30:53;;;;;;;5.60;0.80;;;;;;;2.81;52.19;101280.20;110432;1267;22989;-58
2023/04/04 10:33:30;;;;;;;4.10;0.70;;;;;;;2.83;51.45;101280.89;110452;1260;22892;-58
2023/04/04 10:36:07;;;;;;;9.90;0.90;;;;;;;2.79;51.02;101278.39;110455;1267;22402;-59
2023/04/04 10:38:45;;;;;;;5.20;0.80;;;;;;;2.75;51.60;101277.95;110414;1275;23198;-58
2023/04/04 10:41:16;;;;;;;9.30;1.20;;;;;;;2.80;52.70;101279.73;110443;1262;23082;-58
2023/04/04 10:43:51;;;;;;;3.40;0.90;;;;;;;2.85;52.21;101280.34;110459;1269;22250;-59
2023/04/04 10:46:29;;;;;;;9.30;1.00;;;;;;;2.81;51.76;101277.99;110441;1263;22212;-58
2023/04/04 10:49:02;;;;;;;9.20;1.10;;;;;;;2.73;51.77;101274.24;110458;1267;22300;-59
2023/04/04 10:51:33;;;;;;;5.70;1.00;;;;;;;2.73;52.80;101276.44;110412;1275;22257;-58
2023/04/04 10:54:05;;;;;;;6.20;1.70;;;;;;;2.84;52.76;101279.00;110485;1267;22495;-57
2023/04/04 10:56:36;;;;;;;8.80;1.10;;;;;;;2.92;52.10;101276.27;110441;1275;22290;-59
2023/04/04 10:59:14;;;;;;;3.70;0.80;;;;;;;2.92;51.61;101268.55;110417;1267;23577;-58
2023/04/04 11:01:56;;;;;;;10.50;1.00;;;;;;;2.91;51.23;101260.05;110399;1263;22321;-58
2023/04/04 11:04:42;;;;;;;8.00;0.90;;;;;;;2.94;51.37;101260.50;110464;1264;22246;-58
2023/04/04 11:07:17;;;;;;;6.00;0.90;;;;;;;2.98;50.91;101254.96;110456;1275;22192;-57
2023/04/04 11:09:50;;;;;;;6.60;0.80;;;;;;;3.03;51.49;101255.73;110456;1267;22634;-58
2023/04/04 11:12:26;;;;;;;4.30;0.80;;;;;;;3.08;51.69;101255.61;110456;1266;22293;-58
2023/04/04 11:15:11;;;;;;;4.70;1.00;;;;;;;3.17;51.31;101255.63;110442;1275;22151;-57
2023/04/04 11:17:57;;;;;;;4.00;0.90;;;;;;;3.15;50.06;101253.05;110476;1275;22191;-58
2023/04/04 11:20:34;;;;;;;4.50;0.70;;;;;;;3.08;49.53;101248.67;110463;1268;23072;-59
2023/04/04 11:23:07;;;;;;;7.80;0.90;;;;;;;2.93;49.67;101248.77;110363;1263;22273;-59
2023/04/04 11:25:40;;;;;;;4.30;0.70;;;;;;;2.81;50.07;101246.55;110404;1259;22402;-58
2023/04/04 11:28:15;;;;;;;4.50;0.60;;;;;;;2.71;50.35;101246.20;110426;1267;22245;-58
2023/04/04 11:30:49;;;;;;;6.20;1.00;;;;;;;2.68;51.05;101241.42;110369;1267;22950;-59
2023/04/04 11:33:31;;;;;;;10.20;0.90;;;;;;;2.72;50.88;101237.37;110435;1267;22175;-59
2023/04/04 11:36:07;;;;;;;8.50;0.80;;;;;;;2.75;51.34;101238.23;110437;1267;22234;-58
2023/04/04 11:38:49;;;;;;;7.00;0.80;;;;;;;2.80;50.93;101238.52;110422;1274;23234;-58